Time;durP1;ratioP1;P1;durP2;ratioP2;P2;SDS_P1;SDS_P2;PMS_P1;PMS_P2;Temp;Humidity;BMP_temperature;BMP_pressure;BME280_temperature;BME280_humidity;BME280_pressure;Samples;Min_cycle;Max_cycle;Signal;HPM_P1;HPM_P2
2023/09/03 00:01:48;;;;;;;19.80;17.80;;;;;;;;;;5068718;28;20032;-59
2023/09/03 00:04:14;;;;;;;13.13;12.00;;;;;;;;;;5070217;28;20024;-59
2023/09/03 00:06:39;;;;;;;14.07;12.57;;;;;;;;;;5067010;28;20036;-59
2023/09/03 00:09:04;;;;;;;13.73;12.43;;;;;;;;;;5070405;28;20478;-59
2023/09/03 00:11:29;;;;;;;16.65;12.77;;;;;;;;;;5068501;28;20036;-59
2023/09/03 00:13:55;;;;;;;66.40;17.55;;;;;;;;;;5070595;28;20463;-59
2023/09/03 00:16:20;;;;;;;16.00;14.40;;;;;;;;;;5068719;28;20428;-59
2023/09/03 00:18:46;;;;;;;18.38;16.45;;;;;;;;;;5069578;28;20027;-59
2023/09/03 00:21:11;;;;;;;19.63;17.00;;;;;;;;;;5068810;28;20515;-58
2023/09/03 00:23:36;;;;;;;21.02;18.55;;;;;;;;;;5070078;28;20056;-59
2023/09/03 00:26:02;;;;;;;24.08;20.80;;;;;;;;;;5068189;28;20126;-58
2023/09/03 00:28:27;;;;;;;21.90;19.63;;;;;;;;;;5069483;28;20081;-58
2023/09/03 00:30:59;;;;;;;24.13;20.92;;;;;;;;;;5068894;28;20456;-58
2023/09/03 00:33:24;;;;;;;23.75;20.85;;;;;;;;;;5069713;28;20023;-59
2023/09/03 00:35:49;;;;;;;22.45;19.60;;;;;;;;;;5056107;28;20029;-59
2023/09/03 00:38:15;;;;;;;22.08;19.52;;;;;;;;;;5049564;28;20033;-59
2023/09/03 00:40:40;;;;;;;21.83;19.45;;;;;;;;;;5051415;28;20078;-59
2023/09/03 00:43:05;;;;;;;21.60;19.33;;;;;;;;;;5070303;28;20522;-59
2023/09/03 00:45:31;;;;;;;21.95;19.60;;;;;;;;;;5041316;28;20503;-58
2023/09/03 00:47:56;;;;;;;20.43;18.30;;;;;;;;;;5063958;28;20082;-59
2023/09/03 00:50:21;;;;;;;22.42;20.20;;;;;;;;;;5068594;28;20013;-59
2023/09/03 00:52:46;;;;;;;27.08;16.50;;;;;;;;;;5069737;28;20428;-59
2023/09/03 00:55:12;;;;;;;52.78;12.75;;;;;;;;;;5069793;28;20021;-59
2023/09/03 00:57:37;;;;;;;20.73;13.43;;;;;;;;;;5067959;28;20033;-59
2023/09/03 01:00:03;;;;;;;184.90;17.80;;;;;;;;;;5069775;28;20016;-59
2023/09/03 01:02:28;;;;;;;96.28;14.13;;;;;;;;;;5067868;28;20036;-59
2023/09/03 01:04:53;;;;;;;11.95;10.93;;;;;;;;;;5069908;28;20020;-59
2023/09/03 01:07:19;;;;;;;29.80;13.47;;;;;;;;;;5068287;28;20032;-59
2023/09/03 01:09:44;;;;;;;19.77;12.40;;;;;;;;;;5069173;28;20496;-59
2023/09/03 01:12:19;;;;;;;26.73;14.33;;;;;;;;;;5068444;28;20496;-59
2023/09/03 01:14:57;;;;;;;16.67;14.98;;;;;;;;;;5069850;28;20529;-59
2023/09/03 01:17:22;;;;;;;17.23;15.43;;;;;;;;;;5067321;28;20070;-59
2023/09/03 01:19:55;;;;;;;18.25;16.55;;;;;;;;;;5069548;28;20085;-59
2023/09/03 01:22:20;;;;;;;18.95;16.92;;;;;;;;;;5068233;28;20488;-59
2023/09/03 01:25:12;;;;;;;20.33;16.63;;;;;;;;;;5069203;28;20024;-59
2023/09/03 01:27:42;;;;;;;19.70;17.73;;;;;;;;;;5067582;28;20044;-59
2023/09/03 01:30:08;;;;;;;20.08;17.42;;;;;;;;;;5069733;28;20021;-59
2023/09/03 01:32:34;;;;;;;18.15;14.65;;;;;;;;;;5069926;28;20052;-59
2023/09/03 01:35:00;;;;;;;16.52;14.88;;;;;;;;;;5073082;28;20066;-59
2023/09/03 01:37:25;;;;;;;19.23;15.48;;;;;;;;;;5071194;28;20041;-60
2023/09/03 01:39:51;;;;;;;16.20;14.52;;;;;;;;;;5072644;28;20466;-60
2023/09/03 01:42:17;;;;;;;18.13;16.17;;;;;;;;;;5071758;28;20025;-61
2023/09/03 01:44:42;;;;;;;17.83;16.10;;;;;;;;;;5073024;28;20030;-60
2023/09/03 01:47:27;;;;;;;20.30;17.95;;;;;;;;;;5070904;28;20453;-60
2023/09/03 01:50:11;;;;;;;20.00;17.95;;;;;;;;;;5072970;28;20033;-58
2023/09/03 01:52:45;;;;;;;26.08;22.75;;;;;;;;;;5071203;28;20033;-59
2023/09/03 01:55:11;;;;;;;24.33;21.08;;;;;;;;;;5071269;28;20017;-59
2023/09/03 01:57:41;;;;;;;25.17;22.67;;;;;;;;;;5071063;28;20032;-59
2023/09/03 02:00:09;;;;;;;24.80;19.75;;;;;;;;;;5072898;28;20095;-60
2023/09/03 02:02:36;;;;;;;30.13;24.10;;;;;;;;;;5070696;28;20499;-61
2023/09/03 02:05:01;;;;;;;27.23;22.23;;;;;;;;;;5072268;28;20426;-60
2023/09/03 02:07:26;;;;;;;34.07;24.07;;;;;;;;;;5070790;28;20070;-60
2023/09/03 02:09:52;;;;;;;33.90;24.73;;;;;;;;;;5072242;28;20426;-61
2023/09/03 02:12:23;;;;;;;34.63;27.50;;;;;;;;;;5069913;28;20509;-59
2023/09/03 02:14:48;;;;;;;36.92;25.33;;;;;;;;;;5072857;28;20423;-59
2023/09/03 02:17:19;;;;;;;46.00;30.88;;;;;;;;;;5070222;28;20463;-59
2023/09/03 02:19:44;;;;;;;36.25;28.83;;;;;;;;;;5072127;28;20472;-59
2023/09/03 02:22:09;;;;;;;36.77;27.97;;;;;;;;;;5069730;28;20058;-59
2023/09/03 02:24:34;;;;;;;34.92;26.27;;;;;;;;;;5071880;28;20457;-59
2023/09/03 02:27:00;;;;;;;30.73;25.20;;;;;;;;;;5070687;28;20108;-63
2023/09/03 02:29:25;;;;;;;28.17;22.33;;;;;;;;;;5072036;28;20512;-59
2023/09/03 02:31:50;;;;;;;25.80;21.67;;;;;;;;;;5070536;28;20085;-58
2023/09/03 02:34:15;;;;;;;25.48;17.40;;;;;;;;;;5070766;28;20025;-59
2023/09/03 02:36:40;;;;;;;43.47;23.23;;;;;;;;;;5070510;28;20081;-58
2023/09/03 02:39:06;;;;;;;75.20;22.07;;;;;;;;;;5071081;28;20934;-59
2023/09/03 02:41:32;;;;;;;172.50;29.65;;;;;;;;;;5070396;28;20053;-59
2023/09/03 02:43:57;;;;;;;91.38;23.67;;;;;;;;;;5070419;28;20085;-59
2023/09/03 02:46:23;;;;;;;33.40;19.02;;;;;;;;;;5069637;28;20043;-59
2023/09/03 02:48:48;;;;;;;71.38;20.15;;;;;;;;;;5071411;28;20017;-59
2023/09/03 02:51:13;;;;;;;23.02;17.88;;;;;;;;;;5070355;28;20040;-60
2023/09/03 02:53:41;;;;;;;22.55;20.20;;;;;;;;;;5071282;28;20016;-60
2023/09/03 02:56:06;;;;;;;23.45;19.40;;;;;;;;;;5070414;28;20111;-58
2023/09/03 02:58:31;;;;;;;25.92;22.15;;;;;;;;;;5071343;28;20058;-58
2023/09/03 03:01:02;;;;;;;26.75;21.83;;;;;;;;;;5069768;28;20036;-59
2023/09/03 03:03:28;;;;;;;27.25;22.23;;;;;;;;;;5071124;28;20103;-59
2023/09/03 03:05:53;;;;;;;28.55;23.52;;;;;;;;;;5070182;28;20115;-59
2023/09/03 03:08:18;;;;;;;25.80;21.58;;;;;;;;;;5071207;28;20490;-59
2023/09/03 03:10:44;;;;;;;33.03;26.92;;;;;;;;;;5069507;28;20086;-59
2023/09/03 03:13:09;;;;;;;31.75;25.42;;;;;;;;;;5071407;28;20054;-59
2023/09/03 03:15:35;;;;;;;22.77;19.53;;;;;;;;;;5069370;28;20524;-59
2023/09/03 03:18:00;;;;;;;24.00;19.17;;;;;;;;;;5071617;28;20441;-59
2023/09/03 03:20:25;;;;;;;27.40;22.17;;;;;;;;;;5069030;28;20033;-59
2023/09/03 03:22:50;;;;;;;32.70;25.70;;;;;;;;;;5070923;28;20016;-59
2023/09/03 03:25:16;;;;;;;29.48;24.13;;;;;;;;;;5071019;28;20443;-59
2023/09/03 03:27:41;;;;;;;32.30;24.70;;;;;;;;;;5069230;28;20868;-59
2023/09/03 03:30:06;;;;;;;22.83;18.38;;;;;;;;;;5070563;28;20020;-59
2023/09/03 03:32:31;;;;;;;229.77;24.83;;;;;;;;;;5069244;28;20044;-58
2023/09/03 03:34:56;;;;;;;169.77;22.27;;;;;;;;;;5069690;28;20009;-58
2023/09/03 03:37:22;;;;;;;26.67;16.95;;;;;;;;;;5069125;28;20618;-59
2023/09/03 03:39:50;;;;;;;16.55;14.77;;;;;;;;;;5070452;28;20048;-58
2023/09/03 03:42:16;;;;;;;17.30;15.32;;;;;;;;;;5069377;28;20028;-58
2023/09/03 03:44:41;;;;;;;20.48;16.90;;;;;;;;;;5070078;28;20124;-58
2023/09/03 03:47:06;;;;;;;20.03;15.57;;;;;;;;;;5069408;28;20605;-58
2023/09/03 03:49:31;;;;;;;23.47;19.30;;;;;;;;;;5069892;28;20470;-58
2023/09/03 03:51:56;;;;;;;26.27;21.63;;;;;;;;;;5068832;28;20442;-58
2023/09/03 03:54:21;;;;;;;29.65;23.63;;;;;;;;;;5070261;28;20017;-59
2023/09/03 03:56:47;;;;;;;26.60;23.40;;;;;;;;;;5068972;28;20116;-59
2023/09/03 03:59:12;;;;;;;28.40;23.92;;;;;;;;;;5069870;28;20116;-59
2023/09/03 04:01:37;;;;;;;24.90;18.37;;;;;;;;;;5069043;28;20468;-58
2023/09/03 04:04:03;;;;;;;30.73;16.35;;;;;;;;;;5070533;28;20020;-58
2023/09/03 04:06:30;;;;;;;34.60;18.20;;;;;;;;;;5068388;28;20033;-58
2023/09/03 04:08:55;;;;;;;143.10;20.05;;;;;;;;;;5070277;28;20020;-58
2023/09/03 04:11:23;;;;;;;46.87;18.53;;;;;;;;;;5069084;28;20031;-58
2023/09/03 04:13:48;;;;;;;89.25;21.52;;;;;;;;;;5069990;28;20965;-58
2023/09/03 04:16:14;;;;;;;86.88;19.65;;;;;;;;;;5068851;28;20032;-58
2023/09/03 04:18:40;;;;;;;172.30;20.77;;;;;;;;;;5070178;28;20096;-58
2023/09/03 04:21:06;;;;;;;95.57;18.23;;;;;;;;;;5068021;28;20539;-58
2023/09/03 04:23:31;;;;;;;68.85;15.85;;;;;;;;;;5070054;28;20021;-58
2023/09/03 04:25:56;;;;;;;96.43;17.48;;;;;;;;;;5068768;28;20395;-57
2023/09/03 04:28:22;;;;;;;52.13;14.43;;;;;;;;;;5069761;28;20036;-58
2023/09/03 04:30:51;;;;;;;24.83;16.08;;;;;;;;;;5068498;28;20032;-58
2023/09/03 04:33:17;;;;;;;25.00;18.83;;;;;;;;;;5068784;28;20025;-57
2023/09/03 04:35:42;;;;;;;28.80;17.53;;;;;;;;;;5068818;28;20039;-58
2023/09/03 04:38:08;;;;;;;42.88;18.25;;;;;;;;;;5069450;28;20689;-62
2023/09/03 04:40:36;;;;;;;39.28;19.48;;;;;;;;;;5068050;28;20017;-59
2023/09/03 04:43:02;;;;;;;;;;;;;;;;;;5070671;28;20052;-59
2023/09/03 04:45:27;;;;;;;34.83;20.98;;;;;;;;;;5068296;28;19958;-58
2023/09/03 04:47:52;;;;;;;25.90;20.48;;;;;;;;;;5070071;28;20024;-63
2023/09/03 04:50:18;;;;;;;23.13;19.60;;;;;;;;;;5069351;28;20585;-60
2023/09/03 04:52:48;;;;;;;32.92;19.48;;;;;;;;;;5066948;28;20041;-64
2023/09/03 04:55:13;;;;;;;25.17;15.35;;;;;;;;;;5070042;28;20021;-62
2023/09/03 04:57:38;;;;;;;18.75;13.48;;;;;;;;;;5067559;28;20575;-62
2023/09/03 05:00:04;;;;;;;26.80;17.23;;;;;;;;;;5069253;28;20025;-59
2023/09/03 05:02:29;;;;;;;20.70;15.32;;;;;;;;;;5063521;28;20509;-59
2023/09/03 05:04:54;;;;;;;23.35;16.55;;;;;;;;;;5069397;28;20017;-59
2023/09/03 05:07:20;;;;;;;21.02;18.38;;;;;;;;;;5069026;28;20450;-59
2023/09/03 05:09:45;;;;;;;24.23;21.60;;;;;;;;;;5071794;28;20039;-59
2023/09/03 05:12:10;;;;;;;18.25;16.45;;;;;;;;;;5071540;28;20457;-59
2023/09/03 05:14:35;;;;;;;19.13;17.00;;;;;;;;;;5072452;28;20059;-60
2023/09/03 05:17:00;;;;;;;17.85;16.08;;;;;;;;;;5070700;28;20025;-59
2023/09/03 05:19:25;;;;;;;39.83;16.20;;;;;;;;;;5072653;28;20124;-59
2023/09/03 05:21:50;;;;;;;33.73;16.47;;;;;;;;;;5071296;28;20041;-59
2023/09/03 05:24:16;;;;;;;20.00;17.10;;;;;;;;;;5071770;28;20427;-58
2023/09/03 05:26:42;;;;;;;20.20;18.13;;;;;;;;;;5070670;28;20543;-61
2023/09/03 05:29:08;;;;;;;18.88;17.08;;;;;;;;;;5072480;28;20375;-61
2023/09/03 05:31:35;;;;;;;17.17;15.47;;;;;;;;;;5070872;28;20031;-62
2023/09/03 05:34:00;;;;;;;18.92;17.08;;;;;;;;;;5072180;28;20630;-62
2023/09/03 05:36:25;;;;;;;17.58;15.88;;;;;;;;;;5069343;28;20112;-61
2023/09/03 05:38:51;;;;;;;16.93;15.23;;;;;;;;;;5070918;28;20060;-61
2023/09/03 05:41:16;;;;;;;15.33;13.27;;;;;;;;;;5068537;28;20540;-61
2023/09/03 05:43:41;;;;;;;14.90;13.43;;;;;;;;;;5071784;28;20435;-61
2023/09/03 05:46:06;;;;;;;18.00;16.17;;;;;;;;;;5069576;28;20033;-61
2023/09/03 05:48:31;;;;;;;22.67;20.07;;;;;;;;;;5061560;28;20031;-62
2023/09/03 05:50:57;;;;;;;23.17;20.77;;;;;;;;;;5069745;28;21000;-61
2023/09/03 05:53:23;;;;;;;20.08;17.85;;;;;;;;;;5072424;28;20091;-62
2023/09/03 05:55:48;;;;;;;20.10;18.10;;;;;;;;;;5070124;28;20621;-62
2023/09/03 05:58:13;;;;;;;19.50;17.53;;;;;;;;;;5071611;28;20368;-61
2023/09/03 06:00:41;;;;;;;22.05;19.80;;;;;;;;;;5070555;28;20040;-61
2023/09/03 06:03:06;;;;;;;21.02;17.13;;;;;;;;;;5070997;28;20384;-61
2023/09/03 06:05:32;;;;;;;21.40;19.15;;;;;;;;;;5068624;28;20123;-61
2023/09/03 06:07:58;;;;;;;18.77;16.77;;;;;;;;;;5072029;28;20044;-62
2023/09/03 06:10:24;;;;;;;27.45;19.92;;;;;;;;;;5069050;28;20450;-63
2023/09/03 06:12:49;;;;;;;20.85;18.90;;;;;;;;;;5070077;28;20013;-62
2023/09/03 06:15:14;;;;;;;21.30;18.92;;;;;;;;;;5071839;28;20023;-62
2023/09/03 06:17:39;;;;;;;24.27;21.80;;;;;;;;;;5068430;28;20086;-63
2023/09/03 06:20:05;;;;;;;21.98;19.77;;;;;;;;;;5071421;28;20036;-65
2023/09/03 06:22:30;;;;;;;20.95;18.10;;;;;;;;;;5069706;28;20036;-64
2023/09/03 06:24:55;;;;;;;19.63;17.53;;;;;;;;;;5070746;28;20360;-64
2023/09/03 06:27:20;;;;;;;24.30;21.80;;;;;;;;;;5068922;28;20154;-64
2023/09/03 06:29:46;;;;;;;23.40;20.77;;;;;;;;;;5071441;28;20530;-61
2023/09/03 06:32:11;;;;;;;22.40;19.90;;;;;;;;;;5068453;28;20036;-62
2023/09/03 06:34:36;;;;;;;21.30;19.20;;;;;;;;;;5070705;28;20025;-62
2023/09/03 06:37:01;;;;;;;22.77;20.50;;;;;;;;;;5070406;28;20528;-62
2023/09/03 06:39:26;;;;;;;27.98;22.95;;;;;;;;;;5069680;28;20048;-62
2023/09/03 06:41:51;;;;;;;25.80;23.23;;;;;;;;;;5069682;28;20037;-62
2023/09/03 06:44:17;;;;;;;26.03;21.10;;;;;;;;;;5071554;28;20473;-62
2023/09/03 06:46:42;;;;;;;29.20;22.75;;;;;;;;;;5067143;28;20594;-62
2023/09/03 06:49:07;;;;;;;24.43;21.60;;;;;;;;;;5070862;28;20125;-62
2023/09/03 06:51:32;;;;;;;25.83;22.00;;;;;;;;;;5069479;28;20450;-62
2023/09/03 06:53:59;;;;;;;28.10;22.10;;;;;;;;;;5070002;28;20024;-62
2023/09/03 06:56:24;;;;;;;29.55;22.00;;;;;;;;;;5068883;28;20037;-62
2023/09/03 06:58:49;;;;;;;25.33;22.65;;;;;;;;;;5069596;28;20028;-62
2023/09/03 07:01:14;;;;;;;26.70;21.13;;;;;;;;;;5064856;28;20509;-62
2023/09/03 07:03:39;;;;;;;25.02;21.92;;;;;;;;;;5054397;28;20017;-62
2023/09/03 07:06:05;;;;;;;26.85;20.23;;;;;;;;;;5048685;28;22186;-62
2023/09/03 07:08:30;;;;;;;21.80;17.73;;;;;;;;;;5048243;28;20033;-62
2023/09/03 07:10:59;;;;;;;28.17;18.83;;;;;;;;;;5054216;28;20085;-62
2023/09/03 07:13:25;;;;;;;18.95;17.00;;;;;;;;;;5070583;28;20077;-62
2023/09/03 07:15:50;;;;;;;18.50;16.50;;;;;;;;;;5068204;28;20041;-62
2023/09/03 07:18:15;;;;;;;22.75;16.92;;;;;;;;;;5068948;28;20083;-62
2023/09/03 07:20:40;;;;;;;23.13;17.52;;;;;;;;;;5068740;28;20716;-61
2023/09/03 07:23:05;;;;;;;18.05;15.15;;;;;;;;;;5067790;28;20032;-62
2023/09/03 07:25:31;;;;;;;21.97;16.60;;;;;;;;;;5058508;28;20052;-61
2023/09/03 07:27:57;;;;;;;18.70;14.88;;;;;;;;;;5050381;28;22397;-63
2023/09/03 07:30:22;;;;;;;18.02;14.70;;;;;;;;;;5046923;28;20032;-63
2023/09/03 07:32:47;;;;;;;17.00;13.50;;;;;;;;;;5050709;28;20025;-62
2023/09/03 07:35:13;;;;;;;14.77;13.18;;;;;;;;;;5050329;28;20464;-63
2023/09/03 07:37:38;;;;;;;15.17;12.50;;;;;;;;;;5053842;28;20041;-62
2023/09/03 07:40:03;;;;;;;13.00;11.53;;;;;;;;;;5061771;28;20462;-61
2023/09/03 07:42:28;;;;;;;13.48;12.00;;;;;;;;;;5047126;28;20448;-61
2023/09/03 07:44:53;;;;;;;15.50;11.45;;;;;;;;;;5049658;28;20009;-62
2023/09/03 07:47:19;;;;;;;10.33;9.33;;;;;;;;;;5048905;28;20094;-62
2023/09/03 07:49:44;;;;;;;12.50;11.15;;;;;;;;;;5050115;28;20538;-62
2023/09/03 07:52:11;;;;;;;10.98;9.88;;;;;;;;;;5048894;28;20032;-62
2023/09/03 07:54:36;;;;;;;14.20;9.73;;;;;;;;;;5067615;28;20459;-61
2023/09/03 07:57:02;;;;;;;11.10;9.82;;;;;;;;;;5068386;28;20112;-62
2023/09/03 07:59:27;;;;;;;8.52;7.57;;;;;;;;;;5070108;28;20027;-62
2023/09/03 08:01:52;;;;;;;8.43;7.63;;;;;;;;;;5067488;28;20048;-61
2023/09/03 08:04:18;;;;;;;8.15;6.50;;;;;;;;;;5069855;28;20073;-62
2023/09/03 08:06:43;;;;;;;10.32;7.72;;;;;;;;;;5064071;28;20120;-61
2023/09/03 08:09:08;;;;;;;10.13;7.93;;;;;;;;;;5048991;28;20100;-61
2023/09/03 08:11:35;;;;;;;10.77;7.70;;;;;;;;;;5051790;28;20036;-61
2023/09/03 08:14:01;;;;;;;10.32;7.00;;;;;;;;;;5059810;28;20021;-62
2023/09/03 08:16:26;;;;;;;7.28;6.57;;;;;;;;;;5045303;28;20037;-61
2023/09/03 08:18:51;;;;;;;7.38;6.70;;;;;;;;;;5049353;28;20481;-61
2023/09/03 08:21:16;;;;;;;8.30;6.85;;;;;;;;;;5047744;28;20033;-62
2023/09/03 08:23:42;;;;;;;9.57;8.10;;;;;;;;;;5048427;28;20021;-62
2023/09/03 08:26:07;;;;;;;11.10;7.97;;;;;;;;;;5054734;28;20447;-62
2023/09/03 08:28:33;;;;;;;8.18;7.40;;;;;;;;;;5069220;28;20054;-62
2023/09/03 08:30:58;;;;;;;7.70;6.68;;;;;;;;;;5066838;28;20036;-62
2023/09/03 08:33:23;;;;;;;14.48;8.10;;;;;;;;;;5068872;28;20092;-62
2023/09/03 08:35:48;;;;;;;9.50;7.23;;;;;;;;;;5068049;28;20368;-61
2023/09/03 08:38:13;;;;;;;8.20;7.40;;;;;;;;;;5066760;28;20101;-62
2023/09/03 08:40:40;;;;;;;8.37;6.27;;;;;;;;;;5052104;28;20060;-61
2023/09/03 08:43:07;;;;;;;12.27;6.65;;;;;;;;;;5053626;28;20032;-62
2023/09/03 08:45:36;;;;;;;8.10;6.45;;;;;;;;;;5051606;28;20032;-61
2023/09/03 08:48:02;;;;;;;6.90;6.30;;;;;;;;;;5053308;28;20039;-62
2023/09/03 08:50:28;;;;;;;6.17;5.33;;;;;;;;;;5051609;28;20033;-62
2023/09/03 08:52:54;;;;;;;5.38;4.90;;;;;;;;;;5052946;28;20428;-62
2023/09/03 08:55:19;;;;;;;7.55;6.43;;;;;;;;;;5051865;28;20029;-60
2023/09/03 08:57:45;;;;;;;5.97;5.30;;;;;;;;;;5053202;28;20143;-62
2023/09/03 09:00:14;;;;;;;10.17;5.50;;;;;;;;;;5052554;28;20472;-62
2023/09/03 09:02:41;;;;;;;10.35;5.55;;;;;;;;;;5051294;28;20860;-62
2023/09/03 09:05:08;;;;;;;7.07;4.88;;;;;;;;;;5053521;28;20458;-62
2023/09/03 09:07:33;;;;;;;5.13;4.43;;;;;;;;;;5050707;28;20056;-62
2023/09/03 09:10:02;;;;;;;3.85;3.50;;;;;;;;;;5052992;28;20021;-63
2023/09/03 09:12:27;;;;;;;4.68;4.25;;;;;;;;;;5051357;28;20033;-62
2023/09/03 09:14:59;;;;;;;4.72;3.60;;;;;;;;;;5046570;28;20017;-62
2023/09/03 09:17:24;;;;;;;4.00;3.13;;;;;;;;;;5048438;28;20037;-62
2023/09/03 09:19:49;;;;;;;8.50;3.93;;;;;;;;;;5052402;28;20028;-62
2023/09/03 09:22:14;;;;;;;7.20;5.10;;;;;;;;;;5050547;28;20033;-62
2023/09/03 09:24:40;;;;;;;6.70;4.05;;;;;;;;;;5054386;28;20067;-62
2023/09/03 09:27:14;;;;;;;5.45;4.03;;;;;;;;;;5052457;28;20186;-62
2023/09/03 09:29:39;;;;;;;3.88;3.40;;;;;;;;;;5063493;28;20020;-62
2023/09/03 09:32:31;;;;;;;5.97;4.57;;;;;;;;;;5066076;28;20133;-62
2023/09/03 09:34:56;;;;;;;6.20;3.70;;;;;;;;;;5051626;28;20432;-62
2023/09/03 09:37:21;;;;;;;4.32;3.85;;;;;;;;;;5050725;28;20041;-62
2023/09/03 09:39:47;;;;;;;6.27;4.17;;;;;;;;;;5050463;28;20103;-63
2023/09/03 09:42:13;;;;;;;4.53;3.53;;;;;;;;;;5059761;28;20467;-62
2023/09/03 09:44:54;;;;;;;9.57;4.18;;;;;;;;;;5071361;28;20158;-62
2023/09/03 09:47:20;;;;;;;3.50;3.13;;;;;;;;;;5071064;28;20044;-62
2023/09/03 09:49:46;;;;;;;5.70;3.25;;;;;;;;;;5070404;28;20088;-61
2023/09/03 09:52:12;;;;;;;3.15;2.85;;;;;;;;;;5068492;28;20033;-62
2023/09/03 09:54:44;;;;;;;5.13;2.05;;;;;;;;;;5052288;28;20477;-62
2023/09/03 09:57:14;;;;;;;8.15;2.70;;;;;;;;;;5058305;28;20033;-62
2023/09/03 09:59:40;;;;;;;4.88;4.22;;;;;;;;;;5060078;28;20047;-60
2023/09/03 10:02:13;;;;;;;5.05;2.72;;;;;;;;;;5050725;28;20553;-61
2023/09/03 10:04:45;;;;;;;5.45;2.65;;;;;;;;;;5069228;28;20024;-62
2023/09/03 10:07:11;;;;;;;3.88;2.95;;;;;;;;;;5064527;28;20519;-62
2023/09/03 10:09:37;;;;;;;3.30;2.30;;;;;;;;;;5060906;28;20028;-62
2023/09/03 10:12:03;;;;;;;3.00;2.70;;;;;;;;;;5051489;28;20048;-61
2023/09/03 10:14:28;;;;;;;3.85;3.28;;;;;;;;;;5046981;28;20021;-61
2023/09/03 10:16:55;;;;;;;3.03;1.90;;;;;;;;;;5049926;28;20494;-62
2023/09/03 10:19:23;;;;;;;2.83;2.40;;;;;;;;;;5053229;28;21036;-63
2023/09/03 10:21:49;;;;;;;4.50;2.35;;;;;;;;;;5060029;28;20044;-62
2023/09/03 10:24:15;;;;;;;2.83;2.03;;;;;;;;;;5069263;28;20028;-62
2023/09/03 10:26:43;;;;;;;2.55;2.15;;;;;;;;;;5070439;28;20047;-62
2023/09/03 10:29:10;;;;;;;3.17;2.07;;;;;;;;;;5047704;28;20111;-63
2023/09/03 10:31:36;;;;;;;2.07;1.80;;;;;;;;;;5039222;28;20670;-62
2023/09/03 10:34:02;;;;;;;4.20;1.67;;;;;;;;;;5048036;28;20020;-63
2023/09/03 10:36:27;;;;;;;3.40;1.85;;;;;;;;;;5048666;28;20029;-63
2023/09/03 10:38:52;;;;;;;4.50;1.80;;;;;;;;;;5040655;28;20198;-62
2023/09/03 10:41:24;;;;;;;3.53;2.03;;;;;;;;;;5049603;28;20377;-62
2023/09/03 10:43:53;;;;;;;2.45;2.08;;;;;;;;;;5050576;28;20112;-62
2023/09/03 10:46:19;;;;;;;2.67;2.05;;;;;;;;;;5045233;28;20029;-63
2023/09/03 10:48:51;;;;;;;2.08;1.77;;;;;;;;;;5051529;28;20024;-63
2023/09/03 10:51:33;;;;;;;2.03;1.65;;;;;;;;;;5049176;28;20029;-63
2023/09/03 10:54:17;;;;;;;1.92;1.50;;;;;;;;;;5042741;28;20021;-62
2023/09/03 10:57:01;;;;;;;2.42;1.58;;;;;;;;;;5041382;28;20505;-63
2023/09/03 10:59:46;;;;;;;2.78;1.58;;;;;;;;;;5040598;28;20030;-60
2023/09/03 11:02:28;;;;;;;6.07;2.22;;;;;;;;;;5050985;28;20487;-61
2023/09/03 11:05:12;;;;;;;2.25;1.80;;;;;;;;;;5070146;28;20036;-61
2023/09/03 11:07:37;;;;;;;2.67;2.08;;;;;;;;;;5068428;28;20044;-60
2023/09/03 11:10:21;;;;;;;8.13;1.60;;;;;;;;;;5070930;28;20066;-60
2023/09/03 11:12:47;;;;;;;1.42;1.30;;;;;;;;;;5050333;28;20056;-61
2023/09/03 11:15:13;;;;;;;3.20;2.08;;;;;;;;;;5051201;28;20094;-60
2023/09/03 11:17:38;;;;;;;2.42;2.03;;;;;;;;;;5065965;28;20130;-60
2023/09/03 11:20:03;;;;;;;4.17;1.80;;;;;;;;;;5071137;28;20506;-60
2023/09/03 11:22:36;;;;;;;3.13;1.70;;;;;;;;;;5069457;28;20081;-60
2023/09/03 11:25:02;;;;;;;8.20;3.05;;;;;;;;;;5054609;28;20021;-61
2023/09/03 11:27:27;;;;;;;2.70;2.08;;;;;;;;;;5049342;28;20043;-61
2023/09/03 11:30:02;;;;;;;5.93;3.33;;;;;;;;;;5061005;28;20109;-60
2023/09/03 11:32:37;;;;;;;2.92;1.73;;;;;;;;;;5051370;28;21083;-61
2023/09/03 11:35:02;;;;;;;1.83;1.73;;;;;;;;;;5050917;28;20045;-60
2023/09/03 11:37:27;;;;;;;4.22;1.65;;;;;;;;;;5065819;28;20506;-61
2023/09/03 11:39:52;;;;;;;1.93;1.73;;;;;;;;;;5069556;28;20098;-60
2023/09/03 11:42:17;;;;;;;3.47;1.92;;;;;;;;;;5063810;28;20047;-61
2023/09/03 11:44:43;;;;;;;1.37;1.27;;;;;;;;;;5065240;28;20332;-60
2023/09/03 11:47:08;;;;;;;2.55;2.30;;;;;;;;;;5068635;28;20806;-60
2023/09/03 11:49:34;;;;;;;2.65;1.50;;;;;;;;;;5069747;28;20537;-61
2023/09/03 11:52:09;;;;;;;4.05;1.88;;;;;;;;;;5065272;28;20029;-61
2023/09/03 11:54:36;;;;;;;1.85;1.67;;;;;;;;;;5047085;28;20133;-61
2023/09/03 11:57:02;;;;;;;3.22;1.90;;;;;;;;;;5043729;28;20123;-61
2023/09/03 11:59:27;;;;;;;2.77;1.77;;;;;;;;;;5049872;28;20107;-60
2023/09/03 12:01:53;;;;;;;2.75;1.77;;;;;;;;;;5061485;28;20455;-60
2023/09/03 12:04:18;;;;;;;3.47;2.42;;;;;;;;;;5070091;28;20021;-60
2023/09/03 12:06:43;;;;;;;1.52;1.33;;;;;;;;;;5066911;28;20051;-61
2023/09/03 12:09:08;;;;;;;2.10;1.70;;;;;;;;;;5066978;28;20020;-61
2023/09/03 12:11:34;;;;;;;2.60;1.23;;;;;;;;;;5067111;28;20041;-60
2023/09/03 12:13:59;;;;;;;9.13;2.60;;;;;;;;;;5069385;28;20025;-61
2023/09/03 12:16:25;;;;;;;1.42;1.33;;;;;;;;;;5065865;28;20467;-60
2023/09/03 12:18:53;;;;;;;2.78;1.83;;;;;;;;;;5068405;28;20017;-60
2023/09/03 12:21:19;;;;;;;4.03;1.40;;;;;;;;;;5052129;28;20483;-60
2023/09/03 12:23:44;;;;;;;2.00;1.50;;;;;;;;;;5049882;28;20028;-62
2023/09/03 12:26:14;;;;;;;1.50;1.35;;;;;;;;;;5061958;28;21032;-60
2023/09/03 12:28:40;;;;;;;2.13;1.48;;;;;;;;;;5053240;28;20020;-63
2023/09/03 12:31:06;;;;;;;8.40;3.08;;;;;;;;;;5055476;28;20592;-61
2023/09/03 12:33:35;;;;;;;1.23;1.13;;;;;;;;;;5058517;28;20021;-61
2023/09/03 12:36:03;;;;;;;2.08;0.90;;;;;;;;;;5057509;28;20041;-60
2023/09/03 12:38:29;;;;;;;1.38;1.00;;;;;;;;;;5051393;28;20103;-61
2023/09/03 12:40:54;;;;;;;2.67;1.48;;;;;;;;;;5058523;28;20515;-61
2023/09/03 12:43:19;;;;;;;2.63;1.83;;;;;;;;;;5050468;28;20009;-60
2023/09/03 12:45:44;;;;;;;7.23;2.33;;;;;;;;;;5067543;28;20483;-61
2023/09/03 12:48:09;;;;;;;3.47;1.50;;;;;;;;;;5069695;28;20024;-61
2023/09/03 12:50:34;;;;;;;1.20;1.10;;;;;;;;;;5063079;28;20062;-60
2023/09/03 12:53:00;;;;;;;3.75;2.70;;;;;;;;;;5059589;28;20443;-60
2023/09/03 12:55:25;;;;;;;2.30;2.10;;;;;;;;;;5047453;28;20377;-60
2023/09/03 12:57:51;;;;;;;2.30;2.10;;;;;;;;;;5067883;28;20009;-60
2023/09/03 13:00:16;;;;;;;11.43;7.50;;;;;;;;;;5068118;28;20028;-61
2023/09/03 13:02:41;;;;;;;3.80;2.75;;;;;;;;;;5066325;28;20825;-60
2023/09/03 13:05:06;;;;;;;2.88;2.42;;;;;;;;;;5068161;28;20017;-60
2023/09/03 13:07:31;;;;;;;1.95;1.67;;;;;;;;;;5065571;28;20033;-60
2023/09/03 13:09:56;;;;;;;2.07;1.63;;;;;;;;;;5069052;28;20043;-60
2023/09/03 13:12:22;;;;;;;2.28;1.60;;;;;;;;;;5067170;28;20520;-60
2023/09/03 13:14:47;;;;;;;2.50;1.85;;;;;;;;;;5068880;28;20024;-60
2023/09/03 13:17:12;;;;;;;1.73;1.40;;;;;;;;;;5066813;28;20044;-61
2023/09/03 13:19:37;;;;;;;2.70;1.48;;;;;;;;;;5068566;28;20759;-61
2023/09/03 13:22:02;;;;;;;2.28;1.88;;;;;;;;;;5067104;28;20507;-60
2023/09/03 13:24:28;;;;;;;2.05;1.83;;;;;;;;;;5068306;28;20024;-60
2023/09/03 13:26:53;;;;;;;9.68;3.42;;;;;;;;;;5064584;28;20056;-61
2023/09/03 13:29:18;;;;;;;4.80;2.03;;;;;;;;;;5061555;28;20028;-60
2023/09/03 13:31:43;;;;;;;2.30;2.10;;;;;;;;;;5051133;28;20033;-60
2023/09/03 13:34:08;;;;;;;2.78;2.50;;;;;;;;;;5064292;28;20077;-60
2023/09/03 13:36:33;;;;;;;3.90;1.70;;;;;;;;;;5071086;28;20040;-61
2023/09/03 13:39:00;;;;;;;3.30;3.00;;;;;;;;;;5068691;28;20474;-60
2023/09/03 13:41:27;;;;;;;3.92;1.77;;;;;;;;;;5054240;28;20579;-60
2023/09/03 13:43:52;;;;;;;3.00;2.40;;;;;;;;;;5055131;28;20070;-60
2023/09/03 13:46:17;;;;;;;6.80;1.92;;;;;;;;;;5050285;28;20399;-61
2023/09/03 13:48:43;;;;;;;1.57;1.47;;;;;;;;;;5056633;28;20021;-60
2023/09/03 13:51:09;;;;;;;8.23;2.20;;;;;;;;;;5063014;28;20648;-60
2023/09/03 13:53:35;;;;;;;3.38;1.48;;;;;;;;;;5055843;28;20028;-61
2023/09/03 13:56:05;;;;;;;1.80;1.70;;;;;;;;;;5071541;28;20040;-61
2023/09/03 13:58:30;;;;;;;1.83;1.27;;;;;;;;;;5067386;28;20027;-60
2023/09/03 14:00:56;;;;;;;2.08;1.60;;;;;;;;;;5070873;28;20036;-60
2023/09/03 14:03:21;;;;;;;3.42;2.15;;;;;;;;;;5069692;28;20143;-60
2023/09/03 14:05:46;;;;;;;8.20;1.40;;;;;;;;;;5070528;28;20490;-60
2023/09/03 14:08:11;;;;;;;5.40;1.90;;;;;;;;;;5071993;28;20016;-60
2023/09/03 14:10:36;;;;;;;1.87;1.07;;;;;;;;;;5064942;28;20451;-60
2023/09/03 14:13:01;;;;;;;2.83;1.63;;;;;;;;;;5069102;28;20047;-60
2023/09/03 14:15:27;;;;;;;3.30;1.07;;;;;;;;;;5062654;28;20024;-61
2023/09/03 14:17:52;;;;;;;1.97;1.40;;;;;;;;;;5052144;28;20166;-60
2023/09/03 14:20:17;;;;;;;10.30;5.97;;;;;;;;;;5061318;28;20078;-58
2023/09/03 14:22:43;;;;;;;2.10;1.67;;;;;;;;;;5051907;28;20025;-60
2023/09/03 14:25:08;;;;;;;2.45;1.90;;;;;;;;;;5051689;28;20388;-60